Time;durP1;ratioP1;P1;durP2;ratioP2;P2;SDS_P1;SDS_P2;PMS_P1;PMS_P2;Temp;Humidity;BMP_temperature;BMP_pressure;BME280_temperature;BME280_humidity;BME280_pressure;Samples;Min_cycle;Max_cycle;Signal;HPM_P1;HPM_P2
2022/04/03 00:00:06;;;;;;;1.60;1.30;;;;;;;2.69;77.86;94233.72;1787915;80;21017;-59
2022/04/03 00:02:37;;;;;;;2.97;2.07;;;;;;;2.68;77.12;94237.22;1787539;80;21006;-59
2022/04/03 00:05:05;;;;;;;3.90;2.43;;;;;;;2.69;77.53;94237.63;1787751;80;20946;-59
2022/04/03 00:07:32;;;;;;;4.77;2.60;;;;;;;2.67;78.00;94237.66;1787668;80;21503;-59
2022/04/03 00:10:00;;;;;;;3.20;2.53;;;;;;;2.62;78.52;94238.56;1787696;80;20982;-59
2022/04/03 00:12:27;;;;;;;2.43;2.10;;;;;;;2.58;78.54;94245.11;1787735;80;21009;-59
2022/04/03 00:14:54;;;;;;;2.67;2.07;;;;;;;2.43;79.04;94237.45;1787939;80;20965;-60
2022/04/03 00:17:21;;;;;;;4.13;2.90;;;;;;;2.49;78.95;94245.19;1787331;80;21045;-59
2022/04/03 00:19:48;;;;;;;3.77;2.23;;;;;;;2.52;79.23;94237.38;1787647;80;21496;-59
2022/04/03 00:22:14;;;;;;;3.83;2.50;;;;;;;2.54;79.05;94239.49;1787854;80;21455;-59
2022/04/03 00:24:41;;;;;;;4.67;3.10;;;;;;;2.60;79.12;94239.90;1787646;80;21001;-59
2022/04/03 00:27:08;;;;;;;2.90;2.20;;;;;;;2.61;79.00;94244.22;1787876;80;21045;-60
2022/04/03 00:29:35;;;;;;;2.53;1.70;;;;;;;2.65;78.73;94239.41;1787640;80;21001;-59
2022/04/03 00:32:03;;;;;;;2.83;2.23;;;;;;;2.64;78.51;94243.32;1787804;80;20973;-59
2022/04/03 00:34:30;;;;;;;2.30;2.10;;;;;;;2.70;78.43;94244.58;1787653;80;21029;-59
2022/04/03 00:36:56;;;;;;;3.63;2.60;;;;;;;2.75;77.54;94239.73;1787883;80;20993;-59
2022/04/03 00:39:23;;;;;;;2.77;2.23;;;;;;;2.76;77.31;94244.05;1787737;80;20970;-59
2022/04/03 00:41:50;;;;;;;1.97;1.70;;;;;;;2.76;77.18;94238.84;1787857;80;21471;-59
2022/04/03 00:44:18;;;;;;;3.37;2.63;;;;;;;2.78;76.73;94239.70;1782766;80;20998;-59
2022/04/03 00:46:47;;;;;;;3.27;2.53;;;;;;;2.79;77.08;94236.20;1787558;80;21013;-59
2022/04/03 00:49:13;;;;;;;4.07;2.60;;;;;;;2.87;77.29;94240.03;1787601;80;21495;-60
2022/04/03 00:51:40;;;;;;;3.40;2.40;;;;;;;2.87;77.46;94237.42;1781505;80;21014;-59
2022/04/03 00:54:08;;;;;;;2.23;2.03;;;;;;;2.87;77.44;94244.38;1777824;81;21006;-59
2022/04/03 00:56:35;;;;;;;2.80;1.90;;;;;;;2.75;77.17;94244.95;1777477;80;21458;-59
2022/04/03 00:59:02;;;;;;;1.97;1.60;;;;;;;2.68;77.16;94245.88;1777673;81;21005;-59
2022/04/03 01:01:29;;;;;;;2.33;1.63;;;;;;;2.47;77.89;94241.76;1777937;81;20978;-60
2022/04/03 01:03:55;;;;;;;2.13;1.17;;;;;;;2.36;78.87;94250.94;1777617;81;21006;-59
2022/04/03 01:06:22;;;;;;;2.63;2.10;;;;;;;2.35;78.60;94246.63;1777786;80;21456;-59
2022/04/03 01:08:49;;;;;;;2.53;1.70;;;;;;;2.36;79.62;94246.18;1777422;81;21007;-60
2022/04/03 01:11:21;;;;;;;2.63;1.87;;;;;;;2.43;80.04;94250.91;1734371;81;21490;-59
2022/04/03 01:13:49;;;;;;;2.20;1.70;;;;;;;2.45;80.75;94249.16;1777638;81;21101;-59
2022/04/03 01:16:17;;;;;;;2.93;2.00;;;;;;;2.55;80.38;94250.80;1777853;81;21467;-59
2022/04/03 01:18:44;;;;;;;1.97;1.73;;;;;;;2.64;80.75;94251.13;1777871;80;21033;-60
2022/04/03 01:21:11;;;;;;;2.20;1.43;;;;;;;2.73;80.88;94245.84;1777506;80;21471;-59
2022/04/03 01:23:39;;;;;;;2.90;2.10;;;;;;;2.83;80.34;94249.22;1777721;80;21029;-59
2022/04/03 01:26:05;;;;;;;2.03;1.60;;;;;;;2.82;80.62;94250.94;1777773;80;21416;-59
2022/04/03 01:28:32;;;;;;;3.67;2.47;;;;;;;2.86;80.86;94245.27;1777713;81;21062;-59
2022/04/03 01:30:58;;;;;;;2.77;2.13;;;;;;;2.88;80.14;94251.34;1777662;81;20994;-60
2022/04/03 01:33:25;;;;;;;3.50;2.07;;;;;;;2.98;80.06;94248.61;1777837;81;21010;-59
2022/04/03 01:35:52;;;;;;;2.20;1.57;;;;;;;3.03;78.82;94245.95;1777739;80;20954;-59
2022/04/03 01:38:19;;;;;;;3.00;1.83;;;;;;;2.98;78.29;94238.63;1777684;80;21061;-60
2022/04/03 01:40:45;;;;;;;2.47;1.97;;;;;;;2.94;78.51;94249.95;1777546;80;21010;-59
2022/04/03 01:43:12;;;;;;;1.80;1.43;;;;;;;2.96;78.04;94243.84;1777833;81;20950;-60
2022/04/03 01:45:39;;;;;;;2.13;1.63;;;;;;;2.84;76.90;94247.03;1777720;81;21057;-59
2022/04/03 01:48:08;;;;;;;2.20;1.60;;;;;;;2.79;77.29;94237.50;1777569;80;20962;-59
2022/04/03 01:50:36;;;;;;;2.13;1.60;;;;;;;2.73;77.13;94240.63;1777623;80;21029;-59
2022/04/03 01:53:04;;;;;;;2.40;1.53;;;;;;;2.70;77.29;94232.41;1777422;80;21049;-59
2022/04/03 01:55:32;;;;;;;1.87;1.43;;;;;;;2.71;77.81;94245.84;1777576;80;21428;-59
2022/04/03 01:57:58;;;;;;;2.30;1.90;;;;;;;2.72;77.74;94242.38;1777768;81;21025;-59
2022/04/03 02:00:26;;;;;;;2.70;2.00;;;;;;;2.65;77.68;94238.55;1777507;81;20978;-59
2022/04/03 02:02:53;;;;;;;2.70;1.80;;;;;;;2.63;77.51;94241.61;1777119;81;21017;-59
2022/04/03 02:05:21;;;;;;;2.07;1.57;;;;;;;2.47;78.17;94236.97;1777505;81;21053;-59
2022/04/03 02:07:48;;;;;;;2.63;1.73;;;;;;;2.31;78.83;94246.22;1734197;81;21519;-59
2022/04/03 02:10:15;;;;;;;2.20;1.70;;;;;;;2.24;79.13;94245.84;1777629;81;20978;-59
2022/04/03 02:12:43;;;;;;;2.93;1.80;;;;;;;2.20;79.40;94248.06;1777789;80;21506;-59
2022/04/03 02:15:11;;;;;;;2.47;1.83;;;;;;;2.14;80.07;94252.88;1777806;81;20986;-59
2022/04/03 02:17:41;;;;;;;1.90;1.47;;;;;;;2.15;80.40;94245.48;1777713;81;21078;-60
2022/04/03 02:20:10;;;;;;;1.53;1.20;;;;;;;2.16;78.67;94251.11;1777715;81;21044;-59
2022/04/03 02:22:37;;;;;;;2.33;1.60;;;;;;;2.22;78.85;94250.62;1777765;80;21006;-59
2022/04/03 02:25:09;;;;;;;2.77;1.37;;;;;;;2.31;79.52;94249.27;1777667;80;20998;-59
2022/04/03 02:27:35;;;;;;;3.43;1.83;;;;;;;2.40;79.38;94245.73;1777586;81;21010;-60
2022/04/03 02:30:04;;;;;;;1.87;1.40;;;;;;;2.55;79.70;94250.80;1777630;81;21440;-60
2022/04/03 02:32:30;;;;;;;2.30;1.67;;;;;;;2.69;79.54;94248.90;1777684;80;20994;-59
2022/04/03 02:34:57;;;;;;;0.93;0.80;;;;;;;2.75;78.26;94256.67;1777446;80;21049;-59
2022/04/03 02:37:24;;;;;;;1.50;1.13;;;;;;;2.75;77.29;94263.63;1777845;80;20982;-59
2022/04/03 02:39:50;;;;;;;2.63;1.20;;;;;;;2.64;77.37;94262.41;1778099;81;21447;-59
2022/04/03 02:42:17;;;;;;;1.07;0.87;;;;;;;2.62;78.24;94262.88;1777528;81;21551;-59
2022/04/03 02:44:44;;;;;;;0.87;0.70;;;;;;;2.59;75.30;94267.65;1778071;80;21002;-60
2022/04/03 02:47:10;;;;;;;0.77;0.60;;;;;;;2.58;73.54;94262.48;1777941;81;20986;-59
2022/04/03 02:49:38;;;;;;;0.60;0.60;;;;;;;2.54;72.97;94280.30;1777994;81;21451;-59
2022/04/03 02:52:05;;;;;;;0.70;0.60;;;;;;;2.55;74.46;94276.39;1777758;80;21522;-59
2022/04/03 02:54:32;;;;;;;0.70;0.70;;;;;;;2.57;74.50;94274.64;1777896;80;21033;-59
2022/04/03 02:56:59;;;;;;;1.23;0.83;;;;;;;2.56;74.19;94279.85;1778021;80;20982;-59
2022/04/03 02:59:25;;;;;;;0.77;0.63;;;;;;;2.51;74.24;94286.39;1777676;81;21073;-59
2022/04/03 03:01:52;;;;;;;0.53;0.50;;;;;;;2.51;74.17;94292.05;1777741;81;20998;-59
2022/04/03 03:04:19;;;;;;;0.67;0.60;;;;;;;2.42;72.03;94298.63;1777772;80;21021;-59
2022/04/03 03:06:45;;;;;;;0.63;0.60;;;;;;;2.37;72.95;94294.34;1777653;81;21014;-59
2022/04/03 03:09:12;;;;;;;0.70;0.70;;;;;;;2.34;72.67;94299.58;1777914;81;20985;-59
2022/04/03 03:11:39;;;;;;;0.67;0.50;;;;;;;2.28;71.54;94290.94;1777857;80;21077;-59
2022/04/03 03:14:06;;;;;;;0.70;0.70;;;;;;;2.15;70.54;94298.83;1777627;81;21021;-59
2022/04/03 03:16:33;;;;;;;1.30;1.00;;;;;;;2.21;71.04;94301.82;1777834;80;21006;-59
2022/04/03 03:19:00;;;;;;;0.50;0.47;;;;;;;2.18;70.34;94299.69;1777930;80;20970;-59
2022/04/03 03:21:27;;;;;;;2.43;0.73;;;;;;;2.16;70.97;94303.15;1777612;80;21108;-59
2022/04/03 03:23:53;;;;;;;0.80;0.70;;;;;;;2.17;71.00;94307.94;1777786;80;21022;-59
2022/04/03 03:26:21;;;;;;;0.57;0.50;;;;;;;2.16;71.45;94300.99;1777697;81;20998;-60
2022/04/03 03:28:47;;;;;;;0.90;0.60;;;;;;;2.18;70.65;94299.25;1777820;81;21041;-59
2022/04/03 03:31:14;;;;;;;1.67;0.90;;;;;;;2.12;71.71;94301.47;1777759;80;21057;-59
2022/04/03 03:33:41;;;;;;;1.10;0.90;;;;;;;2.10;72.10;94304.95;1777285;81;20986;-59
2022/04/03 03:36:09;;;;;;;1.33;0.80;;;;;;;2.11;71.99;94304.92;1777880;81;20966;-59
2022/04/03 03:38:37;;;;;;;0.70;0.60;;;;;;;2.10;71.26;94303.65;1778051;80;20947;-59
2022/04/03 03:41:04;;;;;;;0.80;0.80;;;;;;;2.02;70.93;94305.00;1777557;81;20995;-60
2022/04/03 03:43:30;;;;;;;1.03;0.90;;;;;;;2.00;71.41;94303.28;1777746;81;21061;-59
2022/04/03 03:45:57;;;;;;;0.60;0.57;;;;;;;2.00;70.91;94305.44;1777977;81;21049;-59
2022/04/03 03:48:24;;;;;;;1.50;0.80;;;;;;;1.98;71.08;94312.83;1777783;81;21029;-61
2022/04/03 03:50:51;;;;;;;0.73;0.70;;;;;;;1.96;71.87;94320.63;1777770;81;21006;-60
2022/04/03 03:53:19;;;;;;;0.83;0.60;;;;;;;1.89;72.12;94325.44;1777684;80;21026;-59
2022/04/03 03:55:46;;;;;;;0.53;0.53;;;;;;;1.91;72.79;94325.00;1777697;80;20977;-59
2022/04/03 03:58:13;;;;;;;0.63;0.53;;;;;;;1.85;73.15;94325.05;1777533;80;21048;-59
2022/04/03 04:00:40;;;;;;;0.90;0.50;;;;;;;1.89;73.45;94330.64;1777934;81;21014;-59
2022/04/03 04:03:06;;;;;;;0.60;0.40;;;;;;;1.87;73.76;94329.37;1777616;81;21093;-59
2022/04/03 04:05:34;;;;;;;1.03;0.47;;;;;;;1.87;72.70;94329.37;1777974;81;21034;-59
2022/04/03 04:08:00;;;;;;;1.70;1.17;;;;;;;1.80;72.82;94341.12;1777867;80;21009;-59
2022/04/03 04:10:27;;;;;;;1.47;1.10;;;;;;;1.75;74.51;94334.63;1777583;81;21006;-59
2022/04/03 04:12:53;;;;;;;1.93;1.50;;;;;;;1.71;74.79;94339.00;1777818;80;21002;-59
2022/04/03 04:15:20;;;;;;;2.23;1.47;;;;;;;1.75;76.03;94341.58;1777750;81;21081;-60
2022/04/03 04:17:48;;;;;;;2.70;2.33;;;;;;;1.79;75.20;94344.56;1734499;81;21058;-59
2022/04/03 04:20:18;;;;;;;1.10;0.90;;;;;;;1.83;75.14;94348.45;1777652;81;20974;-59
2022/04/03 04:22:46;;;;;;;1.03;0.90;;;;;;;1.82;74.67;94344.58;1777763;81;21001;-59
2022/04/03 04:25:14;;;;;;;1.30;0.50;;;;;;;1.85;74.94;94352.36;1777921;80;21005;-60
2022/04/03 04:27:43;;;;;;;1.73;0.53;;;;;;;1.88;74.19;94356.23;1777513;81;21026;-59
2022/04/03 04:30:10;;;;;;;0.60;0.50;;;;;;;1.87;72.19;94357.98;1777677;81;21028;-59
2022/04/03 04:32:37;;;;;;;0.57;0.40;;;;;;;1.77;72.31;94369.30;1777569;80;21034;-59
2022/04/03 04:35:05;;;;;;;0.40;0.40;;;;;;;1.76;71.48;94366.25;1777619;80;21057;-60
2022/04/03 04:37:33;;;;;;;0.70;0.60;;;;;;;1.74;70.73;94368.02;1777823;80;21040;-59
2022/04/03 04:40:00;;;;;;;1.03;0.90;;;;;;;1.69;71.63;94367.18;1777865;81;20950;-59
2022/04/03 04:42:28;;;;;;;0.40;0.40;;;;;;;1.76;71.80;94371.45;1777707;80;21460;-60
2022/04/03 04:44:55;;;;;;;0.50;0.50;;;;;;;1.80;69.50;94371.88;1777735;80;21017;-59
2022/04/03 04:47:21;;;;;;;0.47;0.47;;;;;;;1.79;70.70;94381.87;1777937;81;20993;-60
2022/04/03 04:49:48;;;;;;;0.70;0.60;;;;;;;1.78;71.00;94377.52;1777604;81;21014;-60
2022/04/03 04:52:14;;;;;;;1.93;0.63;;;;;;;1.73;69.96;94384.03;1781672;80;21049;-59
2022/04/03 04:54:41;;;;;;;1.07;0.70;;;;;;;1.66;69.66;94387.97;1787665;80;21479;-59
2022/04/03 04:57:08;;;;;;;1.07;0.60;;;;;;;1.58;69.95;94394.50;1787337;80;21022;-59
2022/04/03 04:59:35;;;;;;;1.23;0.90;;;;;;;1.63;70.21;94395.34;1787508;80;21052;-59
2022/04/03 05:02:05;;;;;;;2.17;1.17;;;;;;;1.67;69.68;94402.27;1787552;80;21017;-59
2022/04/03 05:04:31;;;;;;;1.40;0.80;;;;;;;1.61;71.14;94407.48;1787591;80;21021;-59
2022/04/03 05:06:58;;;;;;;3.57;1.87;;;;;;;1.61;70.50;94406.63;1787759;80;21021;-59
2022/04/03 05:09:25;;;;;;;1.13;0.90;;;;;;;1.64;70.81;94409.23;1787416;80;21053;-60
2022/04/03 05:11:52;;;;;;;1.13;0.77;;;;;;;1.46;70.31;94409.72;1787855;80;20981;-59
2022/04/03 05:14:19;;;;;;;1.63;1.30;;;;;;;1.58;69.98;94419.20;1787334;80;21044;-59
2022/04/03 05:16:47;;;;;;;2.57;2.03;;;;;;;1.50;71.37;94424.86;1787739;80;21498;-60
2022/04/03 05:19:13;;;;;;;2.63;1.50;;;;;;;1.49;71.81;94424.00;1787382;80;21025;-59
2022/04/03 05:21:41;;;;;;;2.87;1.70;;;;;;;1.42;71.55;94430.52;1787748;80;20934;-59
2022/04/03 05:24:09;;;;;;;2.23;1.63;;;;;;;1.38;72.38;94434.84;1787682;80;21013;-59
2022/04/03 05:26:36;;;;;;;2.60;1.70;;;;;;;1.34;72.60;94444.83;1787538;80;21507;-59
2022/04/03 05:29:03;;;;;;;3.37;1.90;;;;;;;1.21;73.90;94436.19;1787326;80;20978;-59
2022/04/03 05:31:30;;;;;;;3.73;2.30;;;;;;;1.23;73.89;94443.52;1787774;80;21036;-59
2022/04/03 05:33:57;;;;;;;2.47;2.20;;;;;;;1.17;75.75;94459.14;1787604;80;21014;-59
2022/04/03 05:36:23;;;;;;;4.57;3.17;;;;;;;1.07;76.33;94453.08;1787627;80;21016;-59
2022/04/03 05:38:50;;;;;;;3.30;2.50;;;;;;;1.07;77.02;94452.22;1788014;80;21081;-59
2022/04/03 05:41:17;;;;;;;5.37;3.83;;;;;;;1.11;76.79;94452.66;1787466;80;21052;-59
2022/04/03 05:43:43;;;;;;;5.53;4.73;;;;;;;1.17;76.78;94442.25;1787661;80;21013;-59
2022/04/03 05:46:10;;;;;;;5.27;3.93;;;;;;;1.12;77.43;94454.38;1787725;80;20993;-59
2022/04/03 05:48:37;;;;;;;4.93;4.43;;;;;;;1.07;77.76;94463.91;1787675;80;20990;-59
2022/04/03 05:51:04;;;;;;;3.97;3.23;;;;;;;1.08;78.52;94463.03;1787527;80;20973;-59
2022/04/03 05:53:31;;;;;;;6.13;4.93;;;;;;;1.12;77.66;94469.11;1787228;80;20994;-61
2022/04/03 05:55:58;;;;;;;7.77;5.67;;;;;;;1.10;77.00;94472.13;1787709;80;20990;-59
2022/04/03 05:58:24;;;;;;;4.17;3.70;;;;;;;1.15;77.21;94464.77;1787691;80;21002;-60
2022/04/03 06:00:51;;;;;;;3.00;2.20;;;;;;;1.17;76.99;94463.03;1787785;80;21054;-59
2022/04/03 06:03:18;;;;;;;3.43;2.70;;;;;;;1.15;76.73;94475.16;1787449;80;21041;-59
2022/04/03 06:05:47;;;;;;;3.20;2.60;;;;;;;1.16;75.97;94467.81;1787533;80;21010;-59
2022/04/03 06:08:13;;;;;;;4.97;4.00;;;;;;;1.07;76.66;94478.20;1787644;80;21471;-59
2022/04/03 06:10:40;;;;;;;6.53;3.80;;;;;;;0.90;77.09;94483.81;1787701;80;21048;-60
2022/04/03 06:13:08;;;;;;;5.67;3.80;;;;;;;0.86;77.27;94484.26;1787815;80;21057;-59
2022/04/03 06:15:46;;;;;;;4.50;3.30;;;;;;;0.82;78.16;94485.97;1787733;80;21471;-59
2022/04/03 06:18:16;;;;;;;4.30;3.47;;;;;;;0.94;76.97;94493.36;1787777;80;21003;-62
2022/04/03 06:20:43;;;;;;;3.77;2.80;;;;;;;0.97;77.11;94499.84;1787674;80;21475;-62
2022/04/03 06:23:16;;;;;;;3.90;2.87;;;;;;;1.01;76.69;94498.98;1787367;80;20990;-62
2022/04/03 06:25:45;;;;;;;4.85;2.77;;;;;;;0.97;76.91;94499.41;1787910;80;21001;-62
2022/04/03 06:28:12;;;;;;;4.70;3.33;;;;;;;0.91;77.52;94498.11;1787732;80;21002;-62
2022/04/03 06:30:39;;;;;;;5.97;4.00;;;;;;;0.91;77.28;94510.20;1787684;80;21049;-62
2022/04/03 06:33:06;;;;;;;4.63;4.10;;;;;;;0.90;78.25;94508.05;1787815;80;21487;-62
2022/04/03 06:35:33;;;;;;;5.93;4.60;;;;;;;0.91;78.58;94502.01;1787482;80;21030;-61
2022/04/03 06:37:59;;;;;;;4.67;4.07;;;;;;;0.96;78.47;94500.28;1787697;80;21052;-62
2022/04/03 06:40:26;;;;;;;5.00;3.80;;;;;;;1.09;78.31;94503.74;1787757;80;21530;-62
2022/04/03 06:42:54;;;;;;;6.23;4.97;;;;;;;1.06;77.06;94512.84;1787616;80;20966;-62
2022/04/03 06:45:21;;;;;;;5.70;4.07;;;;;;;1.07;77.17;94511.97;1787721;80;21018;-62
2022/04/03 06:47:47;;;;;;;5.90;3.80;;;;;;;1.13;77.21;94506.75;1787449;80;20986;-62
2022/04/03 06:50:14;;;;;;;5.03;3.60;;;;;;;1.20;77.06;94521.48;1787348;80;21001;-61
2022/04/03 06:52:41;;;;;;;7.13;4.37;;;;;;;1.09;77.15;94518.03;1787713;80;21049;-62
2022/04/03 06:55:09;;;;;;;5.90;4.60;;;;;;;1.16;76.43;94527.56;1787699;80;21081;-62
2022/04/03 06:57:36;;;;;;;6.60;4.90;;;;;;;1.24;76.91;94529.72;1787765;80;20993;-62
2022/04/03 07:00:08;;;;;;;4.80;4.00;;;;;;;1.14;76.26;94529.73;1787698;80;21006;-61
2022/04/03 07:02:35;;;;;;;6.27;4.93;;;;;;;0.89;76.29;94534.89;1787739;80;21033;-62
2022/04/03 07:05:04;;;;;;;5.97;4.37;;;;;;;0.74;77.37;94542.22;1787230;80;21399;-62
2022/04/03 07:07:31;;;;;;;5.17;4.00;;;;;;;0.74;77.77;94542.22;1787707;80;21420;-62
2022/04/03 07:09:59;;;;;;;5.07;4.23;;;;;;;0.79;77.70;94554.78;1787738;80;20993;-61
2022/04/03 07:12:25;;;;;;;6.33;4.37;;;;;;;0.83;77.74;94559.13;1787644;80;21006;-62
2022/04/03 07:14:52;;;;;;;5.93;5.13;;;;;;;0.67;78.25;94561.68;1787669;80;21048;-62
2022/04/03 07:17:18;;;;;;;7.53;5.50;;;;;;;0.77;79.75;94557.80;1788004;80;20993;-62
2022/04/03 07:19:45;;;;;;;6.73;4.57;;;;;;;0.78;77.35;94568.64;1787487;80;20975;-64
2022/04/03 07:22:12;;;;;;;5.93;4.80;;;;;;;0.69;77.36;94563.41;1787454;80;20970;-62
2022/04/03 07:24:40;;;;;;;6.03;3.50;;;;;;;0.73;77.01;94574.66;1787753;80;21549;-62
2022/04/03 07:27:07;;;;;;;5.77;4.80;;;;;;;0.69;76.78;94576.39;1787742;80;21013;-62
2022/04/03 07:29:34;;;;;;;6.33;4.77;;;;;;;0.85;77.39;94578.16;1787921;80;21029;-62
2022/04/03 07:32:01;;;;;;;5.97;4.90;;;;;;;0.86;76.53;94577.31;1787569;80;21542;-62
2022/04/03 07:34:28;;;;;;;6.00;4.73;;;;;;;0.90;76.60;94590.30;1787618;80;21010;-62
2022/04/03 07:36:56;;;;;;;6.30;4.87;;;;;;;0.83;76.33;94600.68;1787789;80;20981;-61
2022/04/03 07:39:26;;;;;;;8.40;6.17;;;;;;;0.83;76.48;94599.38;1787388;80;21020;-62
2022/04/03 07:41:52;;;;;;;8.10;5.30;;;;;;;0.74;76.75;94597.19;1787815;80;21483;-62
2022/04/03 07:44:19;;;;;;;6.77;4.97;;;;;;;0.72;76.98;94601.50;1788000;80;20993;-62
2022/04/03 07:46:46;;;;;;;6.93;4.70;;;;;;;0.85;77.21;94603.26;1787189;80;21057;-62
2022/04/03 07:49:13;;;;;;;6.70;5.37;;;;;;;0.91;77.12;94608.48;1787775;80;21092;-62
2022/04/03 07:51:40;;;;;;;8.50;4.33;;;;;;;0.97;76.64;94621.91;1787641;80;21025;-62
2022/04/03 07:54:07;;;;;;;5.83;4.50;;;;;;;1.03;76.43;94617.61;1779223;80;21460;-62
2022/04/03 07:56:35;;;;;;;5.73;4.70;;;;;;;0.90;76.95;94620.16;1777484;81;21005;-62
2022/04/03 07:59:03;;;;;;;6.50;4.90;;;;;;;0.86;76.78;94624.05;1777815;81;20989;-62
2022/04/03 08:01:30;;;;;;;7.50;5.23;;;;;;;0.86;76.94;94629.69;1777734;81;21006;-61
2022/04/03 08:03:57;;;;;;;6.30;4.80;;;;;;;0.85;76.89;94627.48;1777706;81;21060;-62
2022/04/03 08:06:23;;;;;;;5.50;4.20;;;;;;;0.89;76.98;94630.98;1777740;81;21033;-62
2022/04/03 08:08:50;;;;;;;6.30;4.60;;;;;;;0.84;76.40;94636.59;1777649;80;20981;-62
2022/04/03 08:11:17;;;;;;;4.87;4.33;;;;;;;0.89;76.39;94633.58;1777707;81;21021;-62
2022/04/03 08:13:45;;;;;;;4.93;4.00;;;;;;;0.80;76.96;94638.30;1777784;81;21017;-62
2022/04/03 08:16:11;;;;;;;8.60;5.87;;;;;;;0.87;76.92;94644.39;1777641;81;21041;-62
2022/04/03 08:18:38;;;;;;;6.07;4.63;;;;;;;1.00;77.32;94641.39;1777698;81;20974;-62
2022/04/03 08:21:06;;;;;;;5.77;4.43;;;;;;;1.13;76.94;94642.29;1777742;80;21054;-62
2022/04/03 08:23:33;;;;;;;5.90;4.90;;;;;;;1.17;75.72;94651.40;1777855;80;21458;-62
2022/04/03 08:25:59;;;;;;;5.30;4.10;;;;;;;1.30;76.56;94660.08;1777871;81;21017;-62
2022/04/03 08:28:26;;;;;;;6.17;4.43;;;;;;;1.38;75.51;94660.09;1777607;80;20982;-62
2022/04/03 08:30:52;;;;;;;5.03;4.13;;;;;;;1.30;76.02;94663.98;1777939;80;21045;-62
2022/04/03 08:33:19;;;;;;;4.20;3.07;;;;;;;1.24;75.89;94667.44;1777483;81;21061;-62
2022/04/03 08:35:47;;;;;;;2.50;2.30;;;;;;;1.24;75.93;94677.84;1777215;80;21532;-62
2022/04/03 08:38:14;;;;;;;3.00;2.57;;;;;;;1.34;76.06;94681.33;1777720;81;21006;-62
2022/04/03 08:40:43;;;;;;;3.50;2.83;;;;;;;1.46;73.92;94687.85;1777897;81;20988;-62
2022/04/03 08:43:11;;;;;;;3.07;2.50;;;;;;;1.37;74.72;94689.56;1777456;81;21061;-62
2022/04/03 08:45:39;;;;;;;4.50;3.10;;;;;;;1.42;74.16;94687.84;1777746;81;20958;-61
2022/04/03 08:48:08;;;;;;;3.80;2.63;;;;;;;1.45;74.53;94689.14;1777765;81;20990;-61
2022/04/03 08:50:38;;;;;;;2.57;2.20;;;;;;;1.51;73.12;94692.62;1777387;80;21006;-62
2022/04/03 08:53:08;;;;;;;3.63;2.43;;;;;;;1.60;74.44;94696.95;1777555;80;21456;-62
2022/04/03 08:55:36;;;;;;;3.43;2.53;;;;;;;1.61;73.85;94705.62;1777734;81;21033;-62
2022/04/03 08:58:03;;;;;;;3.73;3.10;;;;;;;1.66;73.77;94710.39;1777843;80;21010;-62
2022/04/03 09:00:33;;;;;;;2.60;2.27;;;;;;;1.62;74.17;94712.13;1777455;81;20994;-62
2022/04/03 09:03:00;;;;;;;3.90;2.90;;;;;;;1.58;73.67;94720.78;1777777;80;21021;-63
2022/04/03 09:05:38;;;;;;;3.50;2.10;;;;;;;1.61;73.56;94718.62;1777713;80;20970;-63
2022/04/03 09:08:07;;;;;;;2.90;2.33;;;;;;;1.59;73.92;94719.05;1777884;80;20978;-62
2022/04/03 09:10:34;;;;;;;2.50;1.67;;;;;;;1.61;73.13;94727.28;1777595;80;21475;-62
2022/04/03 09:13:02;;;;;;;3.30;2.73;;;;;;;1.45;72.56;94728.13;1777806;80;20993;-62
2022/04/03 09:15:31;;;;;;;2.83;1.87;;;;;;;1.54;73.21;94728.16;1777817;81;21029;-62
2022/04/03 09:18:01;;;;;;;2.30;1.67;;;;;;;1.61;72.49;94729.02;1777854;81;20998;-62
2022/04/03 09:20:31;;;;;;;2.57;1.83;;;;;;;1.60;73.72;94721.66;1777633;80;21086;-63
2022/04/03 09:23:02;;;;;;;1.43;1.33;;;;;;;1.57;72.53;94737.70;1777858;81;21013;-62
2022/04/03 09:25:38;;;;;;;2.10;1.70;;;;;;;1.52;71.74;94737.68;1777902;80;21543;-62
2022/04/03 09:28:08;;;;;;;2.50;1.80;;;;;;;1.51;72.16;94745.92;1777889;80;20991;-61
2022/04/03 09:30:42;;;;;;;1.80;1.30;;;;;;;1.57;72.90;94739.86;1777718;81;21013;-62
2022/04/03 09:33:12;;;;;;;3.30;2.50;;;;;;;1.62;72.23;94747.23;1777578;81;21057;-62
2022/04/03 09:36:01;;;;;;;2.87;2.10;;;;;;;1.56;72.11;94748.50;1777567;80;21029;-63
2022/04/03 09:38:30;;;;;;;2.30;1.77;;;;;;;1.51;71.69;94751.12;1777765;80;21480;-62
2022/04/03 09:40:59;;;;;;;1.87;1.70;;;;;;;1.63;73.05;94755.89;1777253;81;20970;-62
2022/04/03 09:43:30;;;;;;;2.37;1.80;;;;;;;1.66;72.02;94758.50;1777716;81;21460;-62
2022/04/03 09:46:07;;;;;;;3.23;2.40;;;;;;;1.50;71.39;94768.86;1777378;81;21038;-62
2022/04/03 09:48:39;;;;;;;1.60;1.50;;;;;;;1.36;71.60;94770.98;1777872;81;21009;-62
2022/04/03 09:51:22;;;;;;;2.30;2.00;;;;;;;1.15;72.35;94775.67;1777990;80;21014;-62
2022/04/03 09:53:58;;;;;;;2.30;1.73;;;;;;;1.12;72.70;94775.23;1782149;80;21672;-62
2022/04/03 09:56:29;;;;;;;2.50;2.10;;;;;;;1.05;73.23;94782.55;1787429;80;20990;-62
2022/04/03 09:59:06;;;;;;;3.37;2.43;;;;;;;0.95;73.22;94797.66;1787764;80;20985;-62
2022/04/03 10:01:40;;;;;;;3.93;2.53;;;;;;;0.85;74.57;94795.43;1787801;80;20954;-62
2022/04/03 10:04:10;;;;;;;3.30;2.20;;;;;;;0.80;73.92;94801.89;1787652;80;21017;-62
2022/04/03 10:06:38;;;;;;;2.20;1.90;;;;;;;0.75;75.00;94809.22;1787351;80;21473;-62
2022/04/03 10:09:11;;;;;;;3.40;2.70;;;;;;;0.72;75.67;94812.66;1787600;80;21507;-62
2022/04/03 10:11:38;;;;;;;3.23;2.70;;;;;;;0.71;74.68;94820.47;1787766;80;20997;-62
2022/04/03 10:14:06;;;;;;;4.43;3.40;;;;;;;0.69;75.35;94816.55;1787299;80;21005;-62
2022/04/03 10:16:32;;;;;;;4.63;2.70;;;;;;;0.73;75.87;94823.51;1787582;80;21002;-62
2022/04/03 10:18:59;;;;;;;2.90;2.20;;;;;;;0.67;75.21;94824.75;1788004;80;20989;-62
2022/04/03 10:21:53;;;;;;;4.17;2.37;;;;;;;0.77;74.44;94828.28;1787291;80;21467;-62
2022/04/03 10:24:23;;;;;;;;;;;;;;;0.79;75.99;94827.43;1790371;80;20981;-62
2022/04/03 10:27:01;;;;;;;4.43;3.77;;;;;;;0.88;75.04;94829.20;1787669;80;20112;-62
2022/04/03 10:29:34;;;;;;;3.53;3.13;;;;;;;0.98;74.53;94836.22;1787530;80;21013;-62
2022/04/03 10:32:05;;;;;;;3.85;3.22;;;;;;;0.99;74.33;94831.89;1787953;80;21005;-62
2022/04/03 10:34:49;;;;;;;3.73;2.97;;;;;;;1.03;74.89;94844.91;1787503;80;20981;-62
2022/04/03 10:37:32;;;;;;;4.12;3.35;;;;;;;1.05;75.40;94847.50;1787464;80;21518;-62
2022/04/03 10:40:16;;;;;;;4.35;3.20;;;;;;;1.17;74.98;94849.30;1787745;80;20970;-62
2022/04/03 10:43:03;;;;;;;5.90;4.00;;;;;;;1.24;74.83;94855.84;1787027;80;21031;-62
2022/04/03 10:45:36;;;;;;;4.70;3.80;;;;;;;1.28;75.34;94858.88;1785640;80;21001;-62
2022/04/03 10:48:26;;;;;;;4.33;3.03;;;;;;;1.30;74.12;94862.35;1787991;80;21049;-62
2022/04/03 10:51:12;;;;;;;4.23;3.43;;;;;;;1.26;75.47;94863.63;1787637;80;21059;-62
2022/04/03 10:53:46;;;;;;;4.90;3.87;;;;;;;1.29;74.54;94867.56;1753030;81;21046;-62
2022/04/03 10:56:26;;;;;;;4.00;3.43;;;;;;;1.26;74.81;94871.02;1773919;81;21563;-62
2022/04/03 10:58:55;;;;;;;4.67;3.70;;;;;;;1.18;73.96;94875.72;1774279;81;21526;-61
2022/04/03 11:01:32;;;;;;;4.80;3.37;;;;;;;1.04;74.33;94874.34;1774275;81;20994;-62
2022/04/03 11:04:08;;;;;;;5.20;3.80;;;;;;;1.10;75.39;94881.30;1773882;81;21026;-62
2022/04/03 11:06:40;;;;;;;2.87;2.40;;;;;;;1.06;74.78;94877.83;1774171;81;21531;-62
2022/04/03 11:09:13;;;;;;;4.07;3.33;;;;;;;1.05;74.29;94874.77;1774301;81;20969;-62
2022/04/03 11:11:53;;;;;;;3.65;2.87;;;;;;;1.11;74.57;94886.52;1774727;81;21033;-62
2022/04/03 11:14:56;;;;;;;3.97;3.47;;;;;;;1.15;75.76;94879.16;1773364;81;21042;-62
2022/04/03 11:17:41;;;;;;;8.17;3.97;;;;;;;1.26;74.26;94889.61;1772661;81;21052;-62
2022/04/03 11:20:09;;;;;;;8.17;5.13;;;;;;;1.38;74.66;94883.62;1774414;81;21034;-62
2022/04/03 11:22:37;;;;;;;5.43;3.83;;;;;;;1.44;73.36;94887.13;1774204;81;20997;-62
2022/04/03 11:25:05;;;;;;;4.90;4.13;;;;;;;1.50;74.72;94897.98;1774264;81;21006;-62
2022/04/03 11:27:32;;;;;;;3.70;3.00;;;;;;;1.57;73.88;94897.16;1774417;81;21025;-62
2022/04/03 11:30:00;;;;;;;5.83;4.30;;;;;;;1.48;74.37;94904.47;1774524;81;21383;-62
2022/04/03 11:32:27;;;;;;;4.73;3.57;;;;;;;1.35;74.57;94908.30;1773868;81;20994;-61
2022/04/03 11:35:01;;;;;;;4.80;3.53;;;;;;;1.19;74.10;94904.75;1774216;81;21542;-62
2022/04/03 11:37:28;;;;;;;3.43;3.00;;;;;;;1.20;74.55;94909.08;1774114;81;21014;-62
2022/04/03 11:39:57;;;;;;;5.90;4.53;;;;;;;1.22;74.72;94908.23;1774356;81;20985;-61
2022/04/03 11:42:24;;;;;;;5.73;4.23;;;;;;;1.16;74.87;94909.91;1774304;81;21022;-62
2022/04/03 11:44:53;;;;;;;5.07;4.37;;;;;;;1.13;75.12;94913.36;1774129;81;21041;-62
2022/04/03 11:47:24;;;;;;;6.40;4.87;;;;;;;1.11;75.19;94922.89;1774198;81;21538;-62